createdAt,value
2019-03-31T00:02:10.918Z,55.88
2019-03-31T00:04:43.131Z,56.25
2019-03-31T00:07:14.205Z,56.43
2019-03-31T00:09:45.499Z,56.39
2019-03-31T00:12:16.268Z,56.35
2019-03-31T00:14:47.509Z,56.42
2019-03-31T00:17:18.767Z,56.34
2019-03-31T00:19:50.243Z,56.57
2019-03-31T00:22:21.581Z,56.74
2019-03-31T00:24:53.611Z,57.11
2019-03-31T00:27:25.022Z,57.45
2019-03-31T00:29:56.504Z,57.62
2019-03-31T00:32:27.615Z,57.75
2019-03-31T00:34:58.888Z,57.98
2019-03-31T00:37:30.284Z,58.08
2019-03-31T00:40:01.216Z,58.02
2019-03-31T00:42:32.658Z,57.82
2019-03-31T00:45:04.189Z,58.18
2019-03-31T00:47:36.981Z,58.22
2019-03-31T00:50:08.346Z,57.96
2019-03-31T00:52:39.589Z,57.89
2019-03-31T00:55:11.054Z,58.09
2019-03-31T00:57:42.237Z,58.34
2019-03-31T01:00:18.502Z,58.53
2019-03-31T01:02:51.502Z,58.60
2019-03-31T01:05:22.524Z,58.60
2019-03-31T01:07:54.832Z,58.89
2019-03-31T01:10:26.062Z,59.21
2019-03-31T01:12:58.016Z,59.21
2019-03-31T01:15:30.582Z,59.33
2019-03-31T01:18:01.825Z,59.63
2019-03-31T01:20:33.388Z,59.39
2019-03-31T01:23:05.329Z,59.29
2019-03-31T01:25:36.875Z,59.46
2019-03-31T01:28:08.156Z,59.57
2019-03-31T01:30:39.513Z,59.57
2019-03-31T01:33:11.076Z,59.39
2019-03-31T01:35:42.131Z,59.48
2019-03-31T01:38:13.672Z,59.45
2019-03-31T01:40:48.466Z,59.52
2019-03-31T01:43:19.941Z,59.30
2019-03-31T01:45:51.262Z,59.39
2019-03-31T01:48:22.796Z,59.39
2019-03-31T01:50:54.001Z,59.58
2019-03-31T01:53:25.293Z,59.67
2019-03-31T01:55:56.764Z,59.51
2019-03-31T01:58:28.272Z,59.65
2019-03-31T02:01:02.011Z,59.99
2019-03-31T02:03:33.358Z,59.96
2019-03-31T02:06:04.867Z,60.04
2019-03-31T02:08:36.215Z,59.92
2019-03-31T02:11:07.592Z,59.99
2019-03-31T02:13:39.108Z,59.84
2019-03-31T02:16:10.425Z,60.16
2019-03-31T02:18:42.016Z,60.34
2019-03-31T02:21:13.352Z,60.50
2019-03-31T02:23:44.652Z,60.70
2019-03-31T02:26:16.755Z,60.83
2019-03-31T02:28:47.841Z,61.10
2019-03-31T02:31:18.927Z,61.08
2019-03-31T02:33:50.436Z,60.84
2019-03-31T02:36:21.723Z,60.50
2019-03-31T02:38:52.993Z,60.56
2019-03-31T02:41:24.404Z,60.27
2019-03-31T02:43:55.717Z,59.74
2019-03-31T02:46:30.495Z,60.11
2019-03-31T02:49:01.640Z,60.25
2019-03-31T02:51:32.847Z,60.36
2019-03-31T02:54:04.788Z,60.28
2019-03-31T02:56:36.404Z,59.98
2019-03-31T02:59:08.254Z,59.69
2019-03-31T03:01:39.695Z,59.82
2019-03-31T03:04:11.008Z,60.00
2019-03-31T03:06:42.451Z,59.81
2019-03-31T03:09:13.694Z,60.26
2019-03-31T03:11:46.037Z,60.27
2019-03-31T03:14:18.099Z,60.07
2019-03-31T03:16:49.487Z,59.91
2019-03-31T03:19:20.924Z,59.90
2019-03-31T03:21:52.304Z,60.26
2019-03-31T03:24:23.717Z,60.29
2019-03-31T03:26:55.207Z,60.91
2019-03-31T03:29:26.595Z,61.24
2019-03-31T03:31:58.140Z,61.17
2019-03-31T03:34:29.568Z,60.61
2019-03-31T03:37:00.990Z,60.07
2019-03-31T03:39:32.540Z,59.71
2019-03-31T03:42:04.219Z,59.79
2019-03-31T03:44:36.125Z,60.40
2019-03-31T03:47:07.195Z,60.47
2019-03-31T03:49:38.634Z,60.45
2019-03-31T03:52:10.086Z,60.46
2019-03-31T03:54:41.589Z,60.30
2019-03-31T03:57:13.218Z,60.26
2019-03-31T03:59:44.571Z,60.36
2019-03-31T04:02:16.100Z,60.22
2019-03-31T04:04:47.608Z,60.18
2019-03-31T04:07:18.755Z,60.73
2019-03-31T04:09:50.227Z,60.58
2019-03-31T04:12:21.602Z,61.27
2019-03-31T04:14:52.799Z,61.91
2019-03-31T04:17:24.309Z,62.23
2019-03-31T04:19:55.629Z,62.62
2019-03-31T04:22:27.786Z,62.56
2019-03-31T04:24:59.445Z,62.50
2019-03-31T04:27:30.683Z,62.60
2019-03-31T04:30:02.412Z,62.53
2019-03-31T04:32:38.509Z,62.59
2019-03-31T04:35:07.820Z,61.96
2019-03-31T04:37:39.710Z,61.56
2019-03-31T04:40:11.116Z,61.10
2019-03-31T04:42:42.467Z,60.62
2019-03-31T04:45:13.825Z,60.58
2019-03-31T04:47:45.280Z,60.60
2019-03-31T04:50:16.470Z,60.08
2019-03-31T04:52:47.812Z,59.85
2019-03-31T04:55:19.031Z,59.41
2019-03-31T04:57:50.697Z,59.79
2019-03-31T05:00:22.959Z,59.95
2019-03-31T05:02:55.374Z,59.74
2019-03-31T05:05:26.659Z,58.89
2019-03-31T05:07:57.957Z,57.27
2019-03-31T05:10:29.498Z,55.42
2019-03-31T05:13:00.615Z,54.04
2019-03-31T05:15:32.212Z,52.22
2019-03-31T05:18:03.765Z,50.60
2019-03-31T05:20:35.107Z,49.57
2019-03-31T05:23:06.436Z,48.68
2019-03-31T05:25:37.972Z,46.85
2019-03-31T05:28:09.177Z,45.38
2019-03-31T05:30:40.788Z,44.29
2019-03-31T05:33:12.098Z,43.38
2019-03-31T05:35:43.536Z,42.63
2019-03-31T05:38:15.263Z,42.65
2019-03-31T05:40:46.629Z,43.24
2019-03-31T05:43:17.904Z,43.64
2019-03-31T05:45:52.362Z,42.90
2019-03-31T05:48:22.414Z,42.88
2019-03-31T05:50:53.698Z,42.08
2019-03-31T05:53:25.118Z,41.38
2019-03-31T05:55:56.565Z,39.96
2019-03-31T05:58:28.164Z,37.96
2019-03-31T06:00:59.497Z,36.54
2019-03-31T06:03:30.931Z,34.89
2019-03-31T06:06:02.409Z,33.47
2019-03-31T06:08:33.915Z,32.27
2019-03-31T06:11:05.622Z,31.76
2019-03-31T06:13:36.997Z,32.03
2019-03-31T06:16:08.318Z,31.81
2019-03-31T06:18:39.838Z,32.18
2019-03-31T06:21:11.278Z,32.82
2019-03-31T06:23:42.907Z,33.85
2019-03-31T06:26:14.197Z,34.40
2019-03-31T06:28:45.621Z,34.30
2019-03-31T06:31:17.209Z,33.93
2019-03-31T06:33:48.427Z,35.88
2019-03-31T06:36:20.024Z,35.26
2019-03-31T06:38:51.382Z,34.57
2019-03-31T06:41:22.737Z,34.18
2019-03-31T06:43:54.354Z,36.25
2019-03-31T06:46:25.982Z,35.67
2019-03-31T06:48:57.291Z,36.29
2019-03-31T06:51:28.485Z,36.34
2019-03-31T06:54:01.237Z,36.43
2019-03-31T06:56:32.661Z,36.53
2019-03-31T06:59:04.029Z,36.85
2019-03-31T07:01:35.268Z,36.65
2019-03-31T07:04:06.603Z,36.48
2019-03-31T07:06:37.861Z,36.56
2019-03-31T07:09:09.202Z,36.84
2019-03-31T07:11:40.780Z,36.34
2019-03-31T07:14:12.084Z,36.29
2019-03-31T07:16:43.996Z,35.78
2019-03-31T07:19:15.286Z,35.34
2019-03-31T07:21:46.843Z,34.93
2019-03-31T07:24:18.215Z,35.48
2019-03-31T07:26:49.614Z,35.19
2019-03-31T07:29:20.977Z,35.39
2019-03-31T07:31:52.532Z,35.53
2019-03-31T07:34:23.995Z,35.03
2019-03-31T07:36:55.181Z,35.05
2019-03-31T07:39:27.196Z,35.03
2019-03-31T07:41:58.574Z,34.56
2019-03-31T07:44:30.994Z,34.72
2019-03-31T07:47:02.280Z,34.37
2019-03-31T07:49:33.912Z,34.98
2019-03-31T07:52:05.262Z,34.19
2019-03-31T07:54:36.674Z,34.34
2019-03-31T07:57:07.937Z,34.10
2019-03-31T07:59:39.617Z,34.59
2019-03-31T08:02:10.856Z,34.18
2019-03-31T08:04:42.320Z,33.81
2019-03-31T08:07:13.703Z,33.51
2019-03-31T08:09:45.905Z,32.73
2019-03-31T08:12:17.859Z,33.16
2019-03-31T08:14:49.104Z,33.90
2019-03-31T08:17:20.383Z,33.47
2019-03-31T08:19:51.884Z,33.06
2019-03-31T08:22:23.253Z,32.07
2019-03-31T08:24:54.941Z,31.80
2019-03-31T08:27:26.672Z,31.93
2019-03-31T08:30:00.722Z,32.02
2019-03-31T08:32:31.396Z,31.61
2019-03-31T08:35:02.944Z,31.59
2019-03-31T08:37:34.197Z,31.42
2019-03-31T08:40:05.960Z,31.21
2019-03-31T08:42:37.388Z,31.17
2019-03-31T08:45:08.947Z,31.61
2019-03-31T08:47:40.399Z,31.73
2019-03-31T08:50:12.995Z,29.59
2019-03-31T08:52:44.419Z,28.94
2019-03-31T08:55:16.212Z,30.54
2019-03-31T08:57:48.085Z,29.17
2019-03-31T09:00:30.964Z,31.37
2019-03-31T09:03:02.581Z,29.58
2019-03-31T09:05:34.101Z,29.57
2019-03-31T09:08:05.450Z,28.94
2019-03-31T09:10:36.969Z,28.62
2019-03-31T09:13:08.189Z,28.78
2019-03-31T09:15:39.435Z,28.02
2019-03-31T09:18:11.008Z,27.88
2019-03-31T09:20:42.242Z,27.93
2019-03-31T09:23:13.767Z,28.14
2019-03-31T09:25:47.625Z,27.50
2019-03-31T09:28:18.361Z,27.58
2019-03-31T09:30:49.823Z,26.65
2019-03-31T09:33:21.153Z,26.78
2019-03-31T09:35:52.854Z,27.00
2019-03-31T09:38:24.275Z,26.48
2019-03-31T09:40:55.659Z,26.19
2019-03-31T09:43:27.285Z,26.60
2019-03-31T09:45:58.799Z,26.18
2019-03-31T09:48:29.979Z,25.70
2019-03-31T09:51:01.385Z,26.13
2019-03-31T09:53:33.236Z,25.63
2019-03-31T09:56:04.133Z,25.61
2019-03-31T09:58:35.367Z,25.19
2019-03-31T10:01:08.187Z,24.73
2019-03-31T10:03:39.718Z,25.12
2019-03-31T10:06:11.406Z,23.51
2019-03-31T10:08:43.125Z,22.27
2019-03-31T10:11:14.470Z,23.16
2019-03-31T10:13:46.082Z,23.13
2019-03-31T10:16:17.528Z,25.24
2019-03-31T10:18:49.112Z,24.74
2019-03-31T10:21:20.628Z,23.59
2019-03-31T10:23:51.963Z,23.75
2019-03-31T10:26:31.712Z,23.75
2019-03-31T10:28:56.727Z,23.19
2019-03-31T10:31:28.547Z,23.16
2019-03-31T10:33:59.775Z,22.51
2019-03-31T10:36:43.785Z,22.85
2019-03-31T10:39:05.590Z,22.29
2019-03-31T10:41:36.911Z,22.28
2019-03-31T10:44:08.097Z,22.53
2019-03-31T10:46:39.592Z,23.01
2019-03-31T10:49:10.962Z,22.51
2019-03-31T10:51:42.726Z,22.04
2019-03-31T10:54:14.073Z,21.56
2019-03-31T10:56:45.864Z,21.23
2019-03-31T10:59:17.262Z,21.25
2019-03-31T11:01:48.456Z,21.25
2019-03-31T11:04:19.741Z,21.44
2019-03-31T11:06:59.024Z,21.67
2019-03-31T11:09:24.062Z,22.33
2019-03-31T11:11:55.361Z,21.34
2019-03-31T11:14:26.580Z,22.25
2019-03-31T11:16:58.090Z,23.03
2019-03-31T11:19:29.822Z,22.28
2019-03-31T11:22:18.875Z,22.49
2019-03-31T11:24:50.565Z,23.98
2019-03-31T11:27:21.836Z,24.44
2019-03-31T11:29:53.367Z,23.28
2019-03-31T11:32:25.044Z,23.65
2019-03-31T11:34:56.670Z,23.35
2019-03-31T11:37:27.988Z,23.35
2019-03-31T11:39:59.252Z,23.04
2019-03-31T11:42:30.547Z,22.62
2019-03-31T11:45:02.203Z,22.46
2019-03-31T11:47:34.136Z,23.04
2019-03-31T11:50:05.322Z,22.86
2019-03-31T11:52:37.002Z,22.96
2019-03-31T11:55:09.339Z,23.17
2019-03-31T11:57:40.523Z,24.12
2019-03-31T12:00:13.937Z,23.58
2019-03-31T12:02:45.523Z,23.76
2019-03-31T12:05:17.116Z,23.94
2019-03-31T12:07:48.669Z,23.55
2019-03-31T12:10:21.346Z,23.30
2019-03-31T12:12:53.014Z,23.67
2019-03-31T12:15:23.943Z,22.83
2019-03-31T12:17:55.582Z,22.59
2019-03-31T12:20:27.072Z,21.22
2019-03-31T12:22:58.440Z,20.47
2019-03-31T12:25:29.967Z,20.09
2019-03-31T12:28:01.566Z,20.00
2019-03-31T12:30:32.985Z,20.33
2019-03-31T12:33:04.877Z,20.50
2019-03-31T12:35:36.288Z,19.89
2019-03-31T12:38:07.496Z,20.28
2019-03-31T12:40:39.293Z,20.72
2019-03-31T12:43:10.705Z,21.05
2019-03-31T12:45:43.249Z,20.57
2019-03-31T12:48:15.253Z,20.57
2019-03-31T12:50:46.414Z,19.57
2019-03-31T12:53:17.857Z,18.92
2019-03-31T12:55:59.552Z,18.44
2019-03-31T12:58:22.016Z,17.21
2019-03-31T13:00:53.080Z,16.33
2019-03-31T13:03:24.421Z,15.61
2019-03-31T13:05:56.140Z,16.92
2019-03-31T13:08:27.463Z,16.53
2019-03-31T13:10:59.012Z,15.54
2019-03-31T13:13:30.481Z,15.21
2019-03-31T13:16:01.682Z,14.96
2019-03-31T13:18:33.327Z,15.88
2019-03-31T13:21:05.796Z,14.49
2019-03-31T13:23:37.628Z,14.97
2019-03-31T13:26:09.267Z,16.25
2019-03-31T13:28:41.060Z,15.85
2019-03-31T13:31:12.417Z,16.27
2019-03-31T13:33:44.064Z,16.18
2019-03-31T13:36:15.510Z,15.69
2019-03-31T13:38:46.809Z,16.17
2019-03-31T13:41:18.264Z,16.47
2019-03-31T13:43:49.479Z,16.06
2019-03-31T13:46:20.669Z,16.52
2019-03-31T13:48:52.178Z,16.69
2019-03-31T13:51:24.758Z,16.66
2019-03-31T13:53:56.666Z,17.29
2019-03-31T13:56:28.248Z,16.82
2019-03-31T13:59:02.634Z,17.22
2019-03-31T14:01:34.251Z,17.51
2019-03-31T14:04:06.648Z,16.83
2019-03-31T14:06:38.015Z,16.46
2019-03-31T14:09:10.240Z,16.66
2019-03-31T14:11:41.521Z,16.54
2019-03-31T14:14:12.755Z,16.29
2019-03-31T14:16:44.251Z,17.10
2019-03-31T14:19:15.406Z,16.92
2019-03-31T14:21:46.709Z,16.24
2019-03-31T14:24:18.542Z,16.29
2019-03-31T14:26:49.885Z,17.01
2019-03-31T14:29:21.502Z,16.67
2019-03-31T14:31:53.885Z,17.11
2019-03-31T14:34:25.257Z,17.87
2019-03-31T14:36:56.734Z,18.23
2019-03-31T14:39:28.260Z,18.06
2019-03-31T14:41:59.965Z,18.22
2019-03-31T14:44:31.404Z,18.03
2019-03-31T14:47:02.850Z,17.74
2019-03-31T14:49:34.262Z,17.62
2019-03-31T14:52:05.499Z,17.76
2019-03-31T14:54:37.161Z,18.25
2019-03-31T14:57:08.562Z,18.81
2019-03-31T14:59:40.143Z,19.64
2019-03-31T15:02:11.525Z,19.82
2019-03-31T15:04:42.776Z,20.78
2019-03-31T15:07:14.274Z,21.59
2019-03-31T15:09:45.659Z,21.93
2019-03-31T15:12:16.942Z,22.65
2019-03-31T15:14:49.560Z,22.92
2019-03-31T15:17:21.293Z,23.20
2019-03-31T15:19:52.646Z,23.35
2019-03-31T15:22:24.081Z,23.46
2019-03-31T15:24:55.676Z,23.46
2019-03-31T15:27:27.045Z,23.96
2019-03-31T15:29:58.707Z,24.39
2019-03-31T15:32:29.918Z,24.60
2019-03-31T15:35:01.486Z,24.94
2019-03-31T15:37:32.754Z,25.13
2019-03-31T15:40:04.279Z,25.34
2019-03-31T15:42:35.739Z,25.45
2019-03-31T15:45:07.575Z,25.83
2019-03-31T15:47:38.899Z,26.20
2019-03-31T15:50:10.004Z,26.41
2019-03-31T15:52:41.557Z,26.23
2019-03-31T15:55:13.997Z,26.50
2019-03-31T15:57:45.803Z,26.59
2019-03-31T16:00:17.196Z,26.72
2019-03-31T16:02:48.992Z,26.36
2019-03-31T16:05:20.399Z,26.98
2019-03-31T16:07:51.776Z,27.10
2019-03-31T16:10:22.977Z,26.95
2019-03-31T16:12:54.040Z,27.15
2019-03-31T16:15:25.298Z,27.27
2019-03-31T16:17:56.454Z,27.26
2019-03-31T16:20:27.914Z,27.18
2019-03-31T16:22:59.030Z,27.61
2019-03-31T16:25:36.369Z,27.89
2019-03-31T16:28:07.244Z,28.32
2019-03-31T16:30:39.497Z,28.45
2019-03-31T16:33:10.963Z,28.67
2019-03-31T16:35:42.319Z,28.67
2019-03-31T16:38:13.423Z,28.96
2019-03-31T16:40:44.589Z,29.17
2019-03-31T16:43:16.001Z,29.31
2019-03-31T16:45:47.229Z,29.40
2019-03-31T16:48:18.282Z,30.00
2019-03-31T16:50:49.324Z,30.66
2019-03-31T16:53:20.360Z,31.00
2019-03-31T16:55:51.568Z,31.43
2019-03-31T16:58:22.638Z,31.55
2019-03-31T17:00:53.912Z,31.62
2019-03-31T17:03:25.315Z,31.81
2019-03-31T17:05:57.300Z,32.05
2019-03-31T17:08:28.059Z,32.08
2019-03-31T17:10:59.350Z,32.13
2019-03-31T17:13:30.541Z,32.45
2019-03-31T17:16:01.807Z,32.74
2019-03-31T17:18:34.145Z,32.76
2019-03-31T17:21:05.308Z,32.66
2019-03-31T17:23:36.541Z,32.85
2019-03-31T17:26:07.523Z,32.82
2019-03-31T17:28:38.744Z,32.90
2019-03-31T17:31:10.024Z,32.89
2019-03-31T17:33:41.288Z,32.95
2019-03-31T17:36:12.979Z,32.84
2019-03-31T17:38:44.253Z,33.19
2019-03-31T17:41:15.476Z,33.16
2019-03-31T17:43:46.321Z,33.06
2019-03-31T17:46:17.431Z,33.13
2019-03-31T17:48:48.842Z,32.96
2019-03-31T17:51:20.100Z,33.28
2019-03-31T17:53:51.255Z,33.09
2019-03-31T17:56:22.657Z,33.21
2019-03-31T17:58:53.981Z,33.38
2019-03-31T18:01:24.579Z,33.33
2019-03-31T18:03:55.817Z,33.44
2019-03-31T18:06:27.179Z,33.75
2019-03-31T18:08:58.462Z,33.80
2019-03-31T18:11:29.550Z,33.83
2019-03-31T18:14:00.180Z,33.79
2019-03-31T18:16:31.017Z,33.73
2019-03-31T18:19:02.147Z,33.64
2019-03-31T18:21:33.616Z,34.29
2019-03-31T18:24:04.466Z,34.56
2019-03-31T18:26:35.642Z,34.82
2019-03-31T18:29:06.513Z,35.12
2019-03-31T18:31:37.632Z,36.24
2019-03-31T18:34:08.622Z,36.38
2019-03-31T18:36:40.014Z,36.41
2019-03-31T18:39:11.353Z,36.27
2019-03-31T18:41:44.714Z,36.72
2019-03-31T18:44:15.802Z,36.86
2019-03-31T18:46:46.715Z,37.16
2019-03-31T18:49:17.704Z,37.13
2019-03-31T18:51:49.162Z,36.94
2019-03-31T18:54:35.131Z,37.36
2019-03-31T18:57:11.869Z,37.36
2019-03-31T19:00:05.492Z,37.21
2019-03-31T19:02:50.878Z,37.41
2019-03-31T19:05:55.926Z,37.91
2019-03-31T19:08:54.924Z,38.18
2019-03-31T19:11:50.846Z,38.23
2019-03-31T19:14:49.858Z,38.53
2019-03-31T19:17:39.755Z,38.42
2019-03-31T19:20:29.851Z,39.17
2019-03-31T19:23:08.603Z,39.27
2019-03-31T19:25:50.591Z,39.18
2019-03-31T19:28:40.381Z,39.61
2019-03-31T19:31:33.118Z,40.38
2019-03-31T19:34:38.277Z,40.83
2019-03-31T19:37:26.421Z,41.04
2019-03-31T19:40:22.673Z,41.07
2019-03-31T19:43:13.070Z,40.99
2019-03-31T19:46:08.792Z,41.30
2019-03-31T19:49:05.651Z,41.49
2019-03-31T19:52:07.823Z,41.90
2019-03-31T19:55:04.697Z,41.94
2019-03-31T19:58:09.942Z,42.20
2019-03-31T20:00:54.060Z,42.45
2019-03-31T20:03:36.689Z,42.55
2019-03-31T20:06:29.885Z,42.38
2019-03-31T20:09:09.052Z,41.94
2019-03-31T20:11:58.923Z,42.00
2019-03-31T20:14:58.221Z,42.51
2019-03-31T20:17:36.242Z,42.92
2019-03-31T20:20:38.117Z,43.15
2019-03-31T20:23:34.151Z,43.52
2019-03-31T20:26:17.711Z,43.38
2019-03-31T20:29:04.730Z,43.90
2019-03-31T20:31:54.518Z,43.51
2019-03-31T20:34:56.475Z,45.01
2019-03-31T20:37:49.437Z,45.26
2019-03-31T20:40:45.609Z,44.85
2019-03-31T20:43:38.546Z,45.19
2019-03-31T20:46:10.158Z,45.63
2019-03-31T20:48:41.394Z,45.79
2019-03-31T20:51:12.875Z,45.82
2019-03-31T20:53:44.184Z,45.90
2019-03-31T20:56:15.521Z,45.85
2019-03-31T20:58:46.591Z,45.99
2019-03-31T21:01:17.830Z,46.34
2019-03-31T21:03:49.392Z,46.04
2019-03-31T21:06:20.381Z,46.07
2019-03-31T21:08:51.461Z,46.13
2019-03-31T21:11:22.340Z,46.12
2019-03-31T21:13:56.766Z,46.21
2019-03-31T21:16:26.747Z,46.36
2019-03-31T21:18:57.786Z,46.79
2019-03-31T21:21:29.127Z,47.06
2019-03-31T21:24:00.121Z,46.69
2019-03-31T21:26:31.142Z,47.09
2019-03-31T21:29:02.467Z,46.69
2019-03-31T21:31:33.850Z,46.63
2019-03-31T21:34:04.421Z,46.92
2019-03-31T21:36:36.130Z,46.93
2019-03-31T21:39:08.416Z,46.90
2019-03-31T21:41:40.231Z,48.05
2019-03-31T21:44:11.796Z,48.67
2019-03-31T21:46:43.092Z,49.46
2019-03-31T21:49:13.437Z,49.88
2019-03-31T21:51:44.837Z,49.52
2019-03-31T21:54:15.907Z,49.04
2019-03-31T21:56:47.027Z,49.53
2019-03-31T21:59:19.450Z,49.65
2019-03-31T22:01:50.632Z,49.68
2019-03-31T22:04:22.186Z,50.05
2019-03-31T22:06:53.339Z,49.86
2019-03-31T22:09:24.288Z,50.21
2019-03-31T22:11:55.590Z,50.31
2019-03-31T22:14:26.651Z,49.73
2019-03-31T22:16:57.584Z,50.21
2019-03-31T22:19:28.493Z,50.74
2019-03-31T22:21:59.529Z,51.06
2019-03-31T22:24:30.914Z,51.09
2019-03-31T22:27:01.751Z,51.11
2019-03-31T22:29:32.881Z,50.75
2019-03-31T22:32:04.187Z,50.81
2019-03-31T22:34:35.564Z,50.85
2019-03-31T22:37:06.617Z,50.71
2019-03-31T22:39:37.589Z,51.05
2019-03-31T22:42:08.843Z,50.83
2019-03-31T22:44:39.910Z,50.65
2019-03-31T22:47:10.915Z,51.17
2019-03-31T22:49:42.516Z,51.60
2019-03-31T22:52:13.664Z,51.88
2019-03-31T22:54:44.850Z,52.01
2019-03-31T22:57:16.268Z,52.40
2019-03-31T22:59:47.311Z,52.67
2019-03-31T23:02:18.632Z,52.84
2019-03-31T23:04:49.737Z,53.16
2019-03-31T23:07:20.628Z,53.57
2019-03-31T23:09:51.789Z,53.75
2019-03-31T23:12:23.122Z,54.09
2019-03-31T23:14:54.442Z,54.34
2019-03-31T23:17:25.377Z,54.57
2019-03-31T23:19:56.415Z,54.04
2019-03-31T23:22:28.238Z,54.46
2019-03-31T23:24:59.408Z,54.54
2019-03-31T23:27:30.392Z,54.74
2019-03-31T23:30:01.380Z,55.02
2019-03-31T23:32:33.141Z,54.53
2019-03-31T23:35:04.151Z,54.41
2019-03-31T23:37:35.065Z,54.80
2019-03-31T23:40:05.927Z,54.77
2019-03-31T23:42:36.876Z,54.89
2019-03-31T23:45:08.665Z,54.99
2019-03-31T23:47:39.943Z,55.29
2019-03-31T23:50:11.328Z,55.31
2019-03-31T23:52:43.599Z,54.90
2019-03-31T23:55:14.725Z,54.92
2019-03-31T23:57:45.762Z,55.35
